Portada
METAR-TAF:

METAR-TAF

Aeropuertos :

Aeropuerto del condado Anoka-Blaine

Minneapolis / Blaine, Minnesota, Estados Unidos

latitud: 45-09N, longitud: 093-13W, altitud: 278 m

Observación

El informe se hizo hace 42 minutos, a las 11:59 UTC
Viento calma
Temperatura 1°C
Humedad 86%
Presión 1028 hPa
Visibilidad: 16.1 km
Cielo despejado

METAR: KANE 111159Z 00000KT 10SM CLR 01/M01 A3037

Hora: 07:41 (12:41 UTC)


TAF: falta

Observaciones y pronósticos meteorológicos de más de 4000 aeropuertos (mensajes METAR y TAF).

Los puntos amarillos y rojos representan las estaciones disponibles.

Ponga el ratón en el punto deseado para ver el nombre de la estación.

Haga clic para ver las observaciones y los pronósticos meteorológicos.

Para cambiar el mapa : haga clic en los botones verdes con una cruz de color negro para hacer un zoom, en el botón verde con un guión para alejar o en las flechas verdes para mapas adyacentes.


METAR-TAF: